Time;durP1;ratioP1;P1;durP2;ratioP2;P2;SDS_P1;SDS_P2;PMS_P1;PMS_P2;Temp;Humidity;BMP_temperature;BMP_pressure;BME280_temperature;BME280_humidity;BME280_pressure;Samples;Min_cycle;Max_cycle;Signal;HPM_P1;HPM_P2
2021/03/07 00:00:00;;;;;;;9.23;2.70;;;;;;;5.58;82.35;102094.59;4965076;28;20029;-76
2021/03/07 00:02:26;;;;;;;8.38;3.10;;;;;;;5.42;82.62;102093.97;4970933;28;20122;-76
2021/03/07 00:04:52;;;;;;;6.45;2.42;;;;;;;5.19;83.48;102092.09;4969214;28;20035;-76
2021/03/07 00:07:18;;;;;;;7.50;2.80;;;;;;;5.34;83.36;102091.91;4965133;28;20132;-76
2021/03/07 00:09:43;;;;;;;6.32;2.70;;;;;;;5.41;82.72;102083.56;4969137;28;20112;-76
2021/03/07 00:12:09;;;;;;;8.02;2.85;;;;;;;5.49;82.27;102077.59;4974139;28;20126;-76
2021/03/07 00:14:34;;;;;;;10.30;2.72;;;;;;;5.39;82.05;102075.84;4981108;28;20042;-76
2021/03/07 00:16:59;;;;;;;6.85;2.17;;;;;;;5.44;82.41;102078.44;4970728;28;20027;-76
2021/03/07 00:19:25;;;;;;;4.43;2.58;;;;;;;5.45;81.94;102080.06;4962764;28;20408;-75
2021/03/07 00:21:51;;;;;;;5.25;2.17;;;;;;;5.46;81.70;102076.28;4969640;28;20035;-77
2021/03/07 00:24:16;;;;;;;4.07;2.20;;;;;;;5.51;81.28;102067.44;4970487;28;20114;-74
2021/03/07 00:26:42;;;;;;;4.82;2.45;;;;;;;5.43;80.63;102066.19;4970159;28;20031;-74
2021/03/07 00:29:07;;;;;;;6.97;2.40;;;;;;;5.48;80.33;102068.78;4969877;28;20057;-72
2021/03/07 00:31:32;;;;;;;5.82;2.40;;;;;;;5.46;80.70;102054.94;4963621;28;20121;-71
2021/03/07 00:33:58;;;;;;;5.03;2.40;;;;;;;5.31;80.61;102055.09;4968942;28;20061;-73
2021/03/07 00:36:23;;;;;;;4.90;2.25;;;;;;;5.35;81.07;102058.81;4967600;28;20047;-73
2021/03/07 00:38:49;;;;;;;6.63;2.25;;;;;;;5.17;81.91;102054.19;4966867;28;20423;-73
2021/03/07 00:41:14;;;;;;;3.13;2.15;;;;;;;5.42;80.85;102059.25;4972454;28;20503;-73
2021/03/07 00:43:39;;;;;;;5.38;2.35;;;;;;;5.43;80.61;102052.03;4971311;28;20440;-74
2021/03/07 00:46:06;;;;;;;4.18;2.38;;;;;;;5.58;80.12;102048.38;4971342;28;20581;-76
2021/03/07 00:48:32;;;;;;;5.97;2.58;;;;;;;5.56;79.99;102053.19;4970446;28;20027;-76
2021/03/07 00:50:57;;;;;;;7.55;2.88;;;;;;;5.50;80.58;102049.81;4963944;28;20043;-76
2021/03/07 00:53:23;;;;;;;5.00;2.70;;;;;;;5.46;79.98;102044.25;4971812;28;20039;-75
2021/03/07 00:55:48;;;;;;;4.90;2.42;;;;;;;5.52;79.88;102036.97;4968718;28;20050;-76
2021/03/07 00:58:14;;;;;;;9.73;3.28;;;;;;;5.50;80.18;102039.91;4967096;28;20065;-76
2021/03/07 01:00:41;;;;;;;5.30;2.63;;;;;;;5.41;79.69;102032.81;4967265;28;20065;-75
2021/03/07 01:03:06;;;;;;;6.30;2.05;;;;;;;5.31;80.36;102032.94;4967233;28;20098;-76
2021/03/07 01:05:32;;;;;;;5.45;2.35;;;;;;;5.45;79.55;102023.97;4967281;28;20850;-76
2021/03/07 01:07:58;;;;;;;4.22;2.03;;;;;;;5.52;79.44;102017.47;4967940;28;20059;-76
2021/03/07 01:10:32;;;;;;;3.97;2.17;;;;;;;5.47;79.85;102018.34;4968481;28;20414;-76
2021/03/07 01:12:58;;;;;;;2.97;1.92;;;;;;;5.53;79.66;102001.16;4964718;28;20043;-75
2021/03/07 01:15:30;;;;;;;6.20;2.22;;;;;;;5.35;79.34;102010.72;4968167;28;20054;-75
2021/03/07 01:17:56;;;;;;;6.90;2.20;;;;;;;5.59;79.44;102002.69;4966435;28;20117;-76
2021/03/07 01:20:22;;;;;;;3.83;2.17;;;;;;;5.60;79.29;102004.25;4969603;28;20043;-76
2021/03/07 01:22:49;;;;;;;6.20;2.30;;;;;;;5.55;79.52;102000.88;4969173;28;20615;-74
2021/03/07 01:25:17;;;;;;;4.03;2.20;;;;;;;5.45;79.45;101994.59;4969056;28;20502;-75
2021/03/07 01:27:42;;;;;;;3.53;2.40;;;;;;;5.56;79.60;101994.44;4966433;28;20094;-75
2021/03/07 01:30:08;;;;;;;4.45;2.33;;;;;;;5.57;79.60;101985.34;4967434;28;20554;-76
2021/03/07 01:32:34;;;;;;;4.85;2.17;;;;;;;5.49;80.01;101976.91;4965935;28;20035;-75
2021/03/07 01:35:00;;;;;;;7.82;2.30;;;;;;;5.43;80.58;101970.03;4967408;28;20514;-75
2021/03/07 01:37:25;;;;;;;8.48;2.47;;;;;;;5.42;80.22;101973.78;4967907;28;20033;-74
2021/03/07 01:39:53;;;;;;;4.38;2.22;;;;;;;5.53;80.50;101969.88;4966328;28;20039;-74
2021/03/07 01:42:19;;;;;;;5.93;2.10;;;;;;;5.47;80.44;101964.91;4971097;28;20034;-73
2021/03/07 01:44:44;;;;;;;4.60;2.30;;;;;;;5.65;79.16;101955.31;4966322;28;20041;-73
2021/03/07 01:47:10;;;;;;;4.32;2.28;;;;;;;5.52;80.15;101956.81;4969910;28;20039;-73
2021/03/07 01:49:35;;;;;;;4.78;1.95;;;;;;;5.44;80.61;101955.59;4965308;28;20507;-73
2021/03/07 01:52:01;;;;;;;4.32;2.00;;;;;;;5.50;79.91;101965.13;4968906;28;20102;-73
2021/03/07 01:54:26;;;;;;;3.17;2.10;;;;;;;5.36;79.64;101950.88;4986092;23;20051;-74
2021/03/07 01:56:53;;;;;;;4.10;2.08;;;;;;;5.44;80.16;101952.13;4971552;28;20043;-74
2021/03/07 01:59:24;;;;;;;5.25;1.98;;;;;;;5.55;79.27;101945.56;4964133;28;20035;-73
2021/03/07 02:01:50;;;;;;;3.33;1.90;;;;;;;5.61;79.15;101949.75;4970750;28;20027;-73
2021/03/07 02:04:15;;;;;;;13.60;2.42;;;;;;;5.46;79.79;101949.94;4971756;28;20049;-74
2021/03/07 02:06:41;;;;;;;6.15;2.13;;;;;;;5.51;79.92;101944.56;4969396;28;20031;-74
2021/03/07 02:09:07;;;;;;;2.45;1.58;;;;;;;5.53;79.22;101942.41;4967402;28;20031;-74
2021/03/07 02:11:36;;;;;;;4.38;1.90;;;;;;;5.53;79.17;101943.16;4963535;28;20460;-73
2021/03/07 02:14:02;;;;;;;2.70;1.70;;;;;;;5.45;79.52;101933.16;4966506;28;20054;-73
2021/03/07 02:16:27;;;;;;;3.20;2.22;;;;;;;5.53;78.50;101937.81;4968665;28;20045;-73
2021/03/07 02:18:54;;;;;;;7.50;2.20;;;;;;;5.57;78.54;101935.41;4981431;28;20038;-73
2021/03/07 02:21:24;;;;;;;5.38;2.20;;;;;;;5.47;79.00;101931.00;4972113;28;20093;-73
2021/03/07 02:24:13;;;;;;;8.23;2.20;;;;;;;5.41;79.50;101916.13;4988291;28;20126;-73
2021/03/07 02:26:48;;;;;;;6.10;2.15;;;;;;;5.44;79.45;101923.53;4978788;28;20121;-73
2021/03/07 02:29:16;;;;;;;5.63;2.03;;;;;;;5.34;79.81;101920.22;4970559;28;20449;-73
2021/03/07 02:31:56;;;;;;;4.30;1.70;;;;;;;5.36;79.88;101916.16;4967052;28;20488;-74
2021/03/07 02:34:28;;;;;;;7.13;2.20;;;;;;;5.49;79.39;101918.13;4972702;28;20027;-73
2021/03/07 02:36:57;;;;;;;5.72;2.10;;;;;;;5.41;79.77;101909.97;4971127;28;20038;-74
2021/03/07 02:39:25;;;;;;;5.80;2.50;;;;;;;5.40;79.67;101906.50;4963560;28;20031;-73
2021/03/07 02:41:58;;;;;;;4.35;1.90;;;;;;;5.38;80.33;101897.22;4970740;28;20603;-73
2021/03/07 02:44:28;;;;;;;4.95;2.28;;;;;;;5.45;80.13;101895.75;4987150;28;20049;-74
2021/03/07 02:46:55;;;;;;;4.80;2.00;;;;;;;5.57;79.26;101889.97;4986100;28;20688;-73
2021/03/07 02:49:22;;;;;;;6.28;2.05;;;;;;;5.56;79.78;101890.25;4968688;28;20030;-73
2021/03/07 02:51:48;;;;;;;8.65;2.40;;;;;;;5.29;79.46;101883.69;4966659;28;20050;-73
2021/03/07 02:54:17;;;;;;;3.53;2.10;;;;;;;5.31;80.28;101886.06;4963448;28;20403;-73
2021/03/07 02:56:47;;;;;;;5.10;2.20;;;;;;;5.37;79.43;101882.25;4971788;28;20039;-73
2021/03/07 02:59:14;;;;;;;3.13;2.03;;;;;;;5.42;79.10;101890.97;4988071;28;20435;-73
2021/03/07 03:01:41;;;;;;;3.78;2.20;;;;;;;5.50;78.53;101881.53;4967227;28;20034;-73
2021/03/07 03:04:08;;;;;;;6.68;2.60;;;;;;;5.49;78.98;101867.41;4960181;28;20051;-73
2021/03/07 03:06:37;;;;;;;4.97;2.03;;;;;;;5.57;78.16;101873.16;4970108;28;20038;-73
2021/03/07 03:09:06;;;;;;;3.97;1.92;;;;;;;5.53;78.70;101869.47;4970661;28;20062;-73
2021/03/07 03:11:35;;;;;;;10.35;2.30;;;;;;;5.35;79.60;101866.53;4967462;28;20407;-73
2021/03/07 03:14:01;;;;;;;5.00;2.22;;;;;;;5.37;79.23;101874.25;4971246;28;20392;-73
2021/03/07 03:16:29;;;;;;;6.78;2.13;;;;;;;5.40;79.38;101871.00;4973217;28;20045;-73
2021/03/07 03:18:56;;;;;;;4.93;2.08;;;;;;;5.39;79.32;101851.50;4971758;28;20022;-73
2021/03/07 03:21:21;;;;;;;6.15;2.50;;;;;;;5.40;78.95;101855.00;4965641;28;20054;-73
2021/03/07 03:23:48;;;;;;;5.40;2.75;;;;;;;5.42;79.05;101850.91;4972314;28;20038;-73
2021/03/07 03:26:14;;;;;;;5.85;2.05;;;;;;;5.43;79.69;101844.50;4970934;28;20134;-74
2021/03/07 03:28:40;;;;;;;9.18;2.40;;;;;;;5.38;79.63;101857.16;4983491;28;20205;-73
2021/03/07 03:31:06;;;;;;;9.38;2.47;;;;;;;5.37;79.05;101842.19;4971155;28;20038;-73
2021/03/07 03:33:33;;;;;;;5.28;2.15;;;;;;;5.23;79.92;101844.00;4968106;28;20657;-73
2021/03/07 03:35:58;;;;;;;2.50;2.10;;;;;;;5.28;80.20;101833.25;4968390;28;20035;-73
2021/03/07 03:38:39;;;;;;;5.35;2.38;;;;;;;5.50;78.70;101844.13;4968593;28;20047;-73
2021/03/07 03:41:08;;;;;;;7.00;2.28;;;;;;;5.43;78.58;101836.50;4969133;28;20038;-73
2021/03/07 03:43:36;;;;;;;6.63;2.08;;;;;;;5.52;78.25;101833.16;4970518;28;20034;-73
2021/03/07 03:46:03;;;;;;;5.63;1.80;;;;;;;5.42;78.91;101840.25;4965997;28;20078;-73
2021/03/07 03:48:33;;;;;;;2.50;1.90;;;;;;;5.28;79.36;101833.25;4972149;28;20113;-73
2021/03/07 03:50:59;;;;;;;9.73;2.42;;;;;;;5.42;78.95;101824.22;4966162;28;20042;-73
2021/03/07 03:53:26;;;;;;;3.97;1.92;;;;;;;5.35;78.66;101818.47;4984460;28;20115;-73
2021/03/07 03:55:52;;;;;;;2.58;1.88;;;;;;;5.51;78.02;101827.03;4967349;28;20122;-73
2021/03/07 03:58:24;;;;;;;3.92;1.88;;;;;;;5.49;78.03;101823.84;4983014;28;20027;-73
2021/03/07 04:00:54;;;;;;;6.63;1.95;;;;;;;5.33;79.22;101820.63;4971907;28;20459;-73
2021/03/07 04:03:21;;;;;;;4.07;2.00;;;;;;;5.27;79.15;101818.31;4968197;28;20187;-73
2021/03/07 04:05:49;;;;;;;4.80;2.08;;;;;;;5.24;79.44;101822.38;4964512;28;20121;-73
2021/03/07 04:08:16;;;;;;;4.13;2.03;;;;;;;5.43;78.63;101809.78;4982337;28;20031;-73
2021/03/07 04:10:43;;;;;;;6.68;2.30;;;;;;;5.41;77.99;101811.97;4971171;28;20035;-73
2021/03/07 04:13:13;;;;;;;4.57;2.08;;;;;;;5.39;78.12;101811.47;4969080;28;20026;-73
2021/03/07 04:15:39;;;;;;;3.25;2.00;;;;;;;5.51;77.98;101811.00;4965266;28;20046;-74
2021/03/07 04:18:07;;;;;;;6.22;2.33;;;;;;;5.55;78.16;101811.22;4968236;28;20038;-73
2021/03/07 04:20:32;;;;;;;3.00;2.13;;;;;;;5.48;78.26;101809.69;4980854;28;20480;-73
2021/03/07 04:22:58;;;;;;;4.22;2.20;;;;;;;5.42;78.58;101818.88;4972341;28;20042;-73
2021/03/07 04:25:23;;;;;;;7.65;2.13;;;;;;;5.45;78.20;101809.50;4984035;28;20041;-72
2021/03/07 04:27:50;;;;;;;3.28;2.25;;;;;;;5.45;77.87;101806.81;4970359;28;20035;-72
2021/03/07 04:30:17;;;;;;;6.22;2.17;;;;;;;5.40;77.74;101810.34;4975017;28;20039;-73
2021/03/07 04:32:43;;;;;;;6.25;2.38;;;;;;;5.40;77.81;101797.00;4977718;28;20039;-72
2021/03/07 04:35:09;;;;;;;5.45;2.72;;;;;;;5.47;77.98;101797.44;4967100;28;20041;-73
2021/03/07 04:37:35;;;;;;;4.95;3.30;;;;;;;5.46;77.53;101795.84;4967448;28;20066;-73
2021/03/07 04:40:00;;;;;;;5.88;2.78;;;;;;;5.39;78.32;101798.09;4966793;28;20062;-73
2021/03/07 04:42:26;;;;;;;6.43;2.83;;;;;;;5.44;78.29;101786.53;4970027;28;20049;-73
2021/03/07 04:44:51;;;;;;;7.25;2.88;;;;;;;5.44;77.77;101792.66;4966512;28;20035;-72
2021/03/07 04:47:17;;;;;;;5.10;2.55;;;;;;;5.53;76.67;101796.25;4970741;28;20483;-73
2021/03/07 04:49:42;;;;;;;7.80;2.80;;;;;;;5.53;77.58;101786.66;4968513;28;20481;-73
2021/03/07 04:52:08;;;;;;;6.35;2.90;;;;;;;5.56;77.16;101788.72;4968550;28;20038;-73
2021/03/07 04:54:33;;;;;;;5.88;3.05;;;;;;;5.60;76.92;101782.53;4969183;28;20050;-73
2021/03/07 04:57:04;;;;;;;4.88;3.00;;;;;;;5.61;76.82;101781.44;4967773;28;20384;-73
2021/03/07 04:59:30;;;;;;;5.85;2.70;;;;;;;5.59;76.58;101780.94;4965074;28;20026;-73
2021/03/07 05:01:56;;;;;;;5.82;2.92;;;;;;;5.58;76.91;101776.69;4972134;28;20607;-73
2021/03/07 05:04:22;;;;;;;7.63;3.00;;;;;;;5.49;77.19;101784.59;4971442;28;20038;-73
2021/03/07 05:06:47;;;;;;;5.22;3.22;;;;;;;5.50;77.28;101769.34;4966858;28;20463;-72
2021/03/07 05:09:13;;;;;;;4.35;3.08;;;;;;;5.61;77.12;101777.97;4966611;28;20117;-73
2021/03/07 05:11:39;;;;;;;6.30;3.15;;;;;;;5.56;77.68;101778.06;4966161;28;20482;-73
2021/03/07 05:14:04;;;;;;;8.38;3.20;;;;;;;5.49;78.16;101776.56;4967122;28;20026;-72
2021/03/07 05:16:30;;;;;;;12.25;3.40;;;;;;;5.51;78.27;101773.59;4963864;28;20042;-73
2021/03/07 05:18:56;;;;;;;5.78;3.38;;;;;;;5.53;78.17;101775.97;4983070;28;20026;-73
2021/03/07 05:21:26;;;;;;;5.90;3.42;;;;;;;5.49;78.08;101775.78;4966941;28;20062;-72
2021/03/07 05:23:52;;;;;;;6.82;3.17;;;;;;;5.56;77.97;101775.38;4953304;28;20044;-72
2021/03/07 05:26:18;;;;;;;5.45;3.08;;;;;;;5.56;78.07;101770.84;4968615;28;20039;-73
2021/03/07 05:28:43;;;;;;;5.43;3.08;;;;;;;5.63;78.41;101767.78;4961273;28;20027;-73
2021/03/07 05:31:09;;;;;;;6.72;2.92;;;;;;;5.50;78.64;101756.78;4968101;28;20046;-73
2021/03/07 05:33:34;;;;;;;5.43;3.25;;;;;;;5.48;78.26;101748.25;4966755;28;20042;-73
2021/03/07 05:36:00;;;;;;;5.85;2.90;;;;;;;5.55;78.48;101765.78;4963298;28;20122;-73
2021/03/07 05:38:26;;;;;;;7.47;3.17;;;;;;;5.46;79.17;101760.31;4967785;28;20395;-73
2021/03/07 05:40:51;;;;;;;5.93;3.20;;;;;;;5.53;78.76;101761.53;4967203;28;20126;-73
2021/03/07 05:43:17;;;;;;;8.98;3.25;;;;;;;5.49;79.53;101757.06;4969258;28;20121;-73
2021/03/07 05:45:43;;;;;;;5.50;3.28;;;;;;;5.50;78.62;101755.97;4967622;28;20039;-73
2021/03/07 05:48:08;;;;;;;5.47;3.03;;;;;;;5.54;79.13;101762.31;4958497;28;20028;-73
2021/03/07 05:50:34;;;;;;;8.00;3.45;;;;;;;5.59;79.04;101745.44;4967694;28;20043;-73
2021/03/07 05:53:00;;;;;;;6.03;2.90;;;;;;;5.53;79.53;101750.84;4965260;28;20035;-73
2021/03/07 05:55:27;;;;;;;5.97;3.00;;;;;;;5.53;78.91;101740.16;4969854;28;20403;-73
2021/03/07 05:57:57;;;;;;;7.43;3.13;;;;;;;5.53;79.30;101734.03;4974190;28;20047;-73
2021/03/07 06:00:23;;;;;;;7.53;3.08;;;;;;;5.49;79.53;101739.19;4969630;28;20105;-73
2021/03/07 06:02:48;;;;;;;9.73;3.03;;;;;;;5.53;79.24;101742.81;4970611;28;20395;-73
2021/03/07 06:05:15;;;;;;;5.38;3.17;;;;;;;5.55;79.15;101731.06;4976130;28;20027;-73
2021/03/07 06:07:41;;;;;;;7.25;3.63;;;;;;;5.57;78.99;101731.56;4970570;28;20038;-73
2021/03/07 06:10:20;;;;;;;4.88;3.20;;;;;;;5.68;78.88;101732.97;4973783;28;20038;-73
2021/03/07 06:13:15;;;;;;;7.93;3.50;;;;;;;5.58;78.71;101730.47;4974820;28;20050;-73
2021/03/07 06:15:43;;;;;;;5.97;3.35;;;;;;;5.63;78.77;101733.88;4964796;28;20057;-73
2021/03/07 06:18:19;;;;;;;8.70;3.40;;;;;;;5.61;78.70;101729.91;4973334;28;20038;-73
2021/03/07 06:20:47;;;;;;;10.20;2.95;;;;;;;5.65;79.25;101730.91;4989402;28;20097;-73
2021/03/07 06:23:12;;;;;;;9.30;3.42;;;;;;;5.62;79.12;101732.25;4973223;28;20031;-73
2021/03/07 06:25:50;;;;;;;11.73;3.30;;;;;;;5.73;79.07;101733.66;4974242;28;20248;-73
2021/03/07 06:28:26;;;;;;;7.35;3.30;;;;;;;5.69;78.68;101726.53;4974688;28;20725;-73
2021/03/07 06:30:53;;;;;;;7.80;4.03;;;;;;;5.70;78.47;101726.25;4974363;28;20034;-73
2021/03/07 06:33:33;;;;;;;6.28;3.17;;;;;;;5.60;78.91;101728.28;4974338;28;20444;-73
2021/03/07 06:36:21;;;;;;;5.53;3.08;;;;;;;5.62;79.41;101732.25;4988800;28;20130;-74
2021/03/07 06:38:51;;;;;;;5.65;3.55;;;;;;;5.70;78.91;101739.59;4988029;28;20043;-73
2021/03/07 06:41:24;;;;;;;11.25;3.50;;;;;;;5.72;78.74;101731.28;4975582;28;20043;-73
2021/03/07 06:43:51;;;;;;;7.00;3.40;;;;;;;5.72;79.15;101739.31;4969896;28;20415;-73
2021/03/07 06:46:37;;;;;;;5.28;3.33;;;;;;;5.57;79.20;101734.25;4974081;28;20045;-74
2021/03/07 06:49:03;;;;;;;6.90;3.45;;;;;;;5.44;79.60;101730.44;4974344;28;20038;-73
2021/03/07 06:51:33;;;;;;;8.23;3.13;;;;;;;5.57;79.84;101734.25;4976432;28;20034;-73
2021/03/07 06:54:13;;;;;;;8.57;3.10;;;;;;;5.64;80.07;101729.28;4973883;28;20118;-73
2021/03/07 06:56:41;;;;;;;7.85;3.53;;;;;;;5.66;79.89;101724.44;4975264;28;20439;-73
2021/03/07 06:59:26;;;;;;;8.60;3.72;;;;;;;5.69;79.67;101734.56;4974106;28;20026;-73
2021/03/07 07:01:53;;;;;;;7.03;3.70;;;;;;;5.75;79.02;101725.38;4990611;28;20117;-73
2021/03/07 07:04:20;;;;;;;6.35;3.65;;;;;;;5.82;78.96;101729.22;4967593;28;20035;-73
2021/03/07 07:07:05;;;;;;;7.35;3.20;;;;;;;5.87;78.64;101725.69;4970622;28;20058;-73
2021/03/07 07:09:32;;;;;;;9.10;3.15;;;;;;;5.75;78.79;101730.72;4961896;28;20042;-73
2021/03/07 07:11:59;;;;;;;6.68;3.35;;;;;;;5.79;78.44;101724.47;4965483;28;20085;-73
2021/03/07 07:14:32;;;;;;;8.02;3.38;;;;;;;5.74;78.55;101721.09;4968969;28;20058;-73
2021/03/07 07:16:58;;;;;;;8.20;3.35;;;;;;;5.86;77.84;101718.78;4983253;28;20827;-73
2021/03/07 07:19:24;;;;;;;7.13;3.58;;;;;;;5.93;77.35;101724.50;4970703;28;20071;-74
2021/03/07 07:21:49;;;;;;;9.60;3.40;;;;;;;5.92;77.57;101728.28;4970691;28;20061;-73
2021/03/07 07:24:15;;;;;;;8.45;3.40;;;;;;;5.81;77.72;101727.63;4965382;28;20444;-73
2021/03/07 07:26:41;;;;;;;4.68;3.17;;;;;;;5.97;76.99;101718.28;4970699;28;20026;-73
2021/03/07 07:29:07;;;;;;;8.43;3.38;;;;;;;5.99;77.23;101720.66;4971391;28;20023;-73
2021/03/07 07:31:38;;;;;;;9.48;4.05;;;;;;;5.98;77.52;101713.72;4968447;28;20057;-73
2021/03/07 07:34:11;;;;;;;7.07;3.20;;;;;;;5.95;76.90;101712.44;4969953;28;20046;-73
2021/03/07 07:36:48;;;;;;;6.13;3.50;;;;;;;5.94;76.67;101708.16;4970890;28;20042;-73
2021/03/07 07:39:22;;;;;;;5.50;2.95;;;;;;;5.98;75.77;101713.72;4966341;28;20027;-73
2021/03/07 07:41:48;;;;;;;8.15;2.97;;;;;;;5.96;75.64;101705.97;4971052;28;20039;-73
2021/03/07 07:44:13;;;;;;;10.20;3.45;;;;;;;6.06;75.29;101721.03;4985658;28;20038;-74
2021/03/07 07:46:56;;;;;;;9.45;3.28;;;;;;;5.93;75.20;101717.28;4972105;28;20109;-73
2021/03/07 07:49:54;;;;;;;5.53;3.20;;;;;;;5.94;74.97;101713.50;4965118;28;20022;-73
2021/03/07 07:52:32;;;;;;;8.70;3.22;;;;;;;5.93;74.74;101709.25;4937434;28;20059;-73
2021/03/07 07:55:03;;;;;;;8.48;3.40;;;;;;;6.05;73.63;101711.44;4984286;23;20537;-76
2021/03/07 07:57:41;;;;;;;6.28;2.90;;;;;;;6.09;73.93;101709.75;4970744;28;20057;-77
2021/03/07 08:00:10;;;;;;;7.40;3.08;;;;;;;6.09;73.39;101709.75;4986351;28;20038;-77
2021/03/07 08:02:47;;;;;;;9.60;2.88;;;;;;;6.18;72.47;101708.75;4983696;28;20073;-76
2021/03/07 08:05:22;;;;;;;5.32;2.53;;;;;;;6.24;73.52;101718.25;4989681;28;20065;-77
2021/03/07 08:07:58;;;;;;;4.47;2.42;;;;;;;6.18;73.82;101706.09;4987012;28;20042;-78
2021/03/07 08:10:39;;;;;;;6.60;2.70;;;;;;;6.15;74.32;101713.91;5001555;28;20034;-77
2021/03/07 08:13:06;;;;;;;8.20;2.93;;;;;;;6.17;73.97;101709.06;4984840;28;20414;-77
2021/03/07 08:15:34;;;;;;;6.28;2.88;;;;;;;6.12;73.93;101709.16;4984442;28;20306;-77
2021/03/07 08:18:04;;;;;;;8.70;2.60;;;;;;;6.16;73.44;101708.25;4982662;28;20034;-77
2021/03/07 08:20:39;;;;;;;6.30;2.53;;;;;;;6.29;72.39;101701.31;4995619;28;20058;-77
2021/03/07 08:23:08;;;;;;;6.55;3.15;;;;;;;6.21;73.62;101700.13;4981079;28;20049;-77
2021/03/07 08:25:46;;;;;;;13.18;3.95;;;;;;;6.20;72.91;101706.56;4982841;28;20034;-77
2021/03/07 08:28:29;;;;;;;4.93;2.55;;;;;;;6.23;73.29;101697.94;4983771;28;20035;-77
2021/03/07 08:31:07;;;;;;;7.13;2.85;;;;;;;6.13;73.72;101692.03;4981465;28;20042;-76
2021/03/07 08:33:40;;;;;;;6.05;2.50;;;;;;;6.32;73.32;101690.81;4991089;28;20255;-78
2021/03/07 08:36:16;;;;;;;9.48;3.05;;;;;;;6.30;73.72;101684.97;4992775;28;20218;-77
2021/03/07 08:38:54;;;;;;;7.22;2.30;;;;;;;6.34;74.02;101690.50;4990526;28;20069;-78
2021/03/07 08:41:24;;;;;;;4.88;2.92;;;;;;;6.40;73.39;101678.63;5005848;28;20117;-77
2021/03/07 08:43:57;;;;;;;6.30;2.50;;;;;;;6.27;72.94;101682.88;4997057;28;20034;-77
2021/03/07 08:46:43;;;;;;;7.20;2.58;;;;;;;6.40;73.02;101683.97;4990956;28;20030;-78
2021/03/07 08:49:14;;;;;;;6.43;2.70;;;;;;;6.51;72.78;101687.19;4983581;28;20049;-77
2021/03/07 08:51:45;;;;;;;6.45;2.50;;;;;;;6.25;73.04;101689.66;4961286;28;20034;-77
2021/03/07 08:54:12;;;;;;;7.03;3.03;;;;;;;6.39;73.23;101688.50;4984557;28;20041;-77
2021/03/07 08:56:38;;;;;;;9.30;2.78;;;;;;;6.38;73.20;101680.78;4979722;28;20034;-77
2021/03/07 08:59:05;;;;;;;5.18;2.50;;;;;;;6.45;72.38;101675.81;4979388;28;20031;-77
2021/03/07 09:01:31;;;;;;;7.25;2.60;;;;;;;6.44;71.93;101668.09;4980427;28;20034;-77
2021/03/07 09:04:01;;;;;;;5.25;2.50;;;;;;;6.54;71.44;101671.34;4992655;28;20080;-77
2021/03/07 09:06:28;;;;;;;10.38;2.78;;;;;;;6.51;71.17;101663.91;4997716;28;20034;-77
2021/03/07 09:09:10;;;;;;;6.30;2.35;;;;;;;6.46;71.12;101658.69;4983873;28;20146;-77
2021/03/07 09:11:45;;;;;;;7.00;2.60;;;;;;;6.53;71.17;101674.31;4987547;28;20070;-76
2021/03/07 09:14:10;;;;;;;6.95;2.80;;;;;;;6.53;71.39;101676.97;4984378;28;20120;-76
2021/03/07 09:16:42;;;;;;;6.38;2.90;;;;;;;6.60;71.69;101672.03;4982591;28;20165;-77
2021/03/07 09:19:29;;;;;;;4.45;2.47;;;;;;;6.52;71.59;101675.41;4986996;28;20037;-76
2021/03/07 09:22:15;;;;;;;7.05;2.28;;;;;;;6.56;71.31;101668.38;4979049;28;20035;-76
2021/03/07 09:24:54;;;;;;;8.25;2.75;;;;;;;6.53;72.27;101656.38;4981597;28;20038;-76
2021/03/07 09:27:21;;;;;;;7.07;2.45;;;;;;;6.60;71.18;101638.00;4990258;28;20062;-76
2021/03/07 09:29:54;;;;;;;3.58;2.67;;;;;;;6.51;72.42;101639.84;4977465;28;20491;-76
2021/03/07 09:32:30;;;;;;;6.22;2.75;;;;;;;6.68;72.87;101631.94;4971078;28;20070;-76
2021/03/07 09:34:57;;;;;;;8.25;2.28;;;;;;;7.06;71.74;101641.19;4978554;28;20701;-76
2021/03/07 09:37:24;;;;;;;5.45;3.78;;;;;;;7.39;71.03;101635.50;4985435;28;20038;-77
2021/03/07 09:39:50;;;;;;;9.27;2.47;;;;;;;7.68;69.89;101636.56;4999672;28;20029;-76
2021/03/07 09:42:20;;;;;;;4.70;2.47;;;;;;;7.96;68.57;101640.56;4990387;28;20030;-76
2021/03/07 09:44:47;;;;;;;10.40;2.35;;;;;;;8.13;66.95;101639.81;4993989;28;20082;-76
2021/03/07 09:47:17;;;;;;;3.80;2.20;;;;;;;8.27;66.70;101637.81;4982868;28;20030;-77
2021/03/07 09:49:45;;;;;;;7.35;2.20;;;;;;;8.53;65.86;101630.56;4984308;28;20038;-76
2021/03/07 09:52:13;;;;;;;5.35;1.92;;;;;;;8.65;64.46;101633.38;4994974;28;20061;-76
2021/03/07 09:54:51;;;;;;;6.97;2.53;;;;;;;8.62;63.53;101625.19;4987030;28;20069;-77
2021/03/07 09:57:19;;;;;;;6.10;2.42;;;;;;;8.60;63.94;101622.81;4989216;28;20046;-76
2021/03/07 09:59:50;;;;;;;7.30;2.72;;;;;;;8.62;62.90;101615.25;4977112;28;20157;-76
2021/03/07 10:02:16;;;;;;;5.57;2.55;;;;;;;8.62;62.68;101614.44;4979699;28;20062;-77
2021/03/07 10:04:45;;;;;;;5.00;2.70;;;;;;;8.50;64.38;101616.97;4986850;28;20525;-77
2021/03/07 10:07:12;;;;;;;6.40;2.60;;;;;;;8.43;64.18;101616.66;4984716;28;20081;-77
2021/03/07 10:10:11;;;;;;;7.10;2.50;;;;;;;8.55;64.06;101614.94;4982570;28;20141;-77
2021/03/07 10:12:50;;;;;;;8.55;2.55;;;;;;;8.70;62.59;101611.75;4980368;28;20050;-76
2021/03/07 10:15:35;;;;;;;6.18;2.42;;;;;;;8.59;63.33;101610.50;4987573;28;20117;-77
2021/03/07 10:18:03;;;;;;;6.20;2.67;;;;;;;8.59;62.36;101615.88;4986256;28;20038;-77
2021/03/07 10:20:34;;;;;;;6.45;2.25;;;;;;;8.47;61.97;101613.03;4984398;28;20037;-77
2021/03/07 10:23:00;;;;;;;10.00;2.47;;;;;;;8.41;62.17;101616.19;4977595;28;20114;-77
2021/03/07 10:25:27;;;;;;;7.00;2.20;;;;;;;8.33;63.00;101617.78;4983907;28;20109;-77
2021/03/07 10:28:06;;;;;;;6.70;2.50;;;;;;;8.29;62.27;101608.78;4994538;28;20042;-76
2021/03/07 10:30:40;;;;;;;4.22;2.33;;;;;;;8.21;62.76;101609.53;4993238;28;20050;-77
2021/03/07 10:33:13;;;;;;;4.70;2.28;;;;;;;8.32;62.90;101610.03;4986922;28;20057;-76
2021/03/07 10:35:56;;;;;;;7.70;2.30;;;;;;;8.36;63.43;101597.56;4984869;28;20113;-77
2021/03/07 10:38:22;;;;;;;6.35;2.95;;;;;;;8.44;63.08;101605.59;4982125;28;20402;-76
2021/03/07 10:40:47;;;;;;;8.43;3.33;;;;;;;8.52;62.79;101604.81;4984704;28;20034;-76
2021/03/07 10:43:13;;;;;;;15.70;6.50;;;;;;;8.56;62.91;101599.59;4998404;28;20034;-76
2021/03/07 10:45:39;;;;;;;6.78;3.17;;;;;;;8.53;63.67;101609.09;4983246;28;20494;-77
2021/03/07 10:48:08;;;;;;;6.75;3.05;;;;;;;8.48;63.24;101600.41;4983278;28;20101;-77
2021/03/07 10:50:35;;;;;;;7.50;3.25;;;;;;;8.39;64.20;101599.63;4983885;28;20070;-77
2021/03/07 10:53:01;;;;;;;9.98;3.08;;;;;;;8.43;64.69;101597.88;4993241;28;20042;-77
2021/03/07 10:55:27;;;;;;;6.85;3.15;;;;;;;8.53;64.68;101589.50;4990538;28;20566;-76
2021/03/07 10:57:52;;;;;;;8.18;3.00;;;;;;;8.48;65.05;101589.69;4989842;28;20038;-76
2021/03/07 11:00:19;;;;;;;7.03;3.10;;;;;;;8.66;65.09;101593.91;4969249;28;20037;-77
2021/03/07 11:02:45;;;;;;;7.55;3.40;;;;;;;8.76;65.43;101589.00;5003345;28;20038;-76
2021/03/07 11:05:13;;;;;;;7.60;3.63;;;;;;;8.84;64.80;101590.09;4985621;28;20038;-77
2021/03/07 11:07:39;;;;;;;7.28;3.25;;;;;;;8.73;65.09;101584.25;4985266;28;20125;-77
2021/03/07 11:10:09;;;;;;;6.25;3.42;;;;;;;8.60;65.91;101587.13;4990840;28;20132;-77
2021/03/07 11:12:35;;;;;;;6.03;3.55;;;;;;;8.63;66.08;101583.81;4991480;28;20046;-77
2021/03/07 11:15:02;;;;;;;10.02;3.42;;;;;;;8.62;66.35;101580.34;4995422;28;20046;-77
2021/03/07 11:17:28;;;;;;;6.78;3.75;;;;;;;8.53;66.57;101587.63;4992934;28;20034;-77
2021/03/07 11:19:53;;;;;;;9.35;4.30;;;;;;;8.51;66.71;101571.03;4990459;28;20495;-77
2021/03/07 11:22:19;;;;;;;12.13;4.10;;;;;;;8.47;66.86;101563.94;4984702;28;20035;-77
2021/03/07 11:24:44;;;;;;;10.23;3.65;;;;;;;8.34;68.12;101562.22;4984542;28;20542;-77
2021/03/07 11:27:09;;;;;;;6.93;3.83;;;;;;;8.23;67.53;101566.31;4988052;28;20034;-77
2021/03/07 11:29:35;;;;;;;7.70;3.60;;;;;;;8.27;67.84;101576.09;4984754;28;20122;-77
2021/03/07 11:32:00;;;;;;;9.52;3.90;;;;;;;8.23;68.16;101565.19;4981966;28;20065;-76
2021/03/07 11:34:26;;;;;;;8.38;4.22;;;;;;;8.14;69.03;101571.66;4991256;28;20104;-77
2021/03/07 11:36:51;;;;;;;7.30;4.20;;;;;;;8.15;69.78;101574.00;5000917;28;20407;-77
2021/03/07 11:39:17;;;;;;;9.02;3.92;;;;;;;8.05;69.62;101562.81;4984354;28;20076;-76
2021/03/07 11:41:42;;;;;;;8.70;3.80;;;;;;;7.90;70.04;101563.25;4986902;28;20041;-77